Oralynn — ZDNX8 — position and weather

sailwx.info

Track history (hours):
 
Tides and Currents Weather Stations Pressure Air Temp Water Temp Dewpoint Dewpoint Depression Visibility Wind Speed Wind Dir Waves Ship Positions

Oralynn

Last reported at 2018-Aug-21 02:23 UTC. Time now 2018-Aug-21 03:55 UTC.
Position N 45°59' W 002°22'.

Length 103 m; draft 7.1 m.

Type: Ship (hazmat cat B). MMSI: 236647000.

Date/timePositionNaut miles runAvg speedWind from/ knotsBaromVisibWave heightAir tempDewpointWater temp
2018-Aug-21 02:23N 45°59' W 002°22'9910.9
2018-Aug-20 17:18N 47°07' W 004°07'610.9
2018-Aug-20 16:47N 47°11' W 004°13'410.7
2018-Aug-20 16:24N 47°13' W 004°17'610.8
2018-Aug-20 15:48N 47°18' W 004°24'511.0
2018-Aug-20 15:19N 47°22' W 004°30'153 7.0
2018-Aug-19 17:33N 49°48' W 003°21'110.1
2018-Aug-19 17:30N 49°48' W 003°21'510.2
2018-Aug-19 17:00N 49°51' W 003°14'10 9.9
2018-Aug-19 16:01N 49°55' W 003°01'0 9.7
2018-Aug-19 15:58N 49°56' W 002°60'91 9.8
2018-Aug-19 06:39N 50°23' W 000°44'511.0
2018-Aug-19 06:13N 50°25' W 000°37'2710.3
2018-Aug-19 03:35N 50°33' E 000°04'9 9.2
2018-Aug-19 02:39N 50°35' E 000°17'1 8.8
2018-Aug-19 02:29N 50°36' E 000°19'4 8.6
2018-Aug-19 01:58N 50°37' E 000°26'4 9.0
2018-Aug-19 01:30N 50°38' E 000°32'5 9.3
2018-Aug-19 01:00N 50°40' E 000°38'5 9.9
2018-Aug-19 00:30N 50°43' E 000°44'510.4
2018-Aug-19 00:00N 50°46' E 000°51'611.0
2018-Aug-18 23:30N 50°50' E 000°58'611.2
2018-Aug-18 22:59N 50°53' E 001°06'511.3
2018-Aug-18 22:30N 50°57' E 001°12'611.3
2018-Aug-18 22:00N 51°00' E 001°19'611.0
2018-Aug-18 21:30N 51°04' E 001°26'510.4
2018-Aug-18 21:00N 51°07' E 001°32'5 9.7
2018-Aug-18 20:30N 51°10' E 001°38'5 9.3
2018-Aug-18 20:00N 51°13' E 001°44'4 8.9
2018-Aug-18 19:30N 51°17' E 001°47'4 8.8
2018-Aug-18 19:00N 51°21' E 001°50'4 8.7
2018-Aug-18 18:30N 51°25' E 001°52'4 8.5
2018-Aug-18 18:00N 51°29' E 001°56'4 8.8
2018-Aug-18 17:30N 51°32' E 002°01'5 9.3
2018-Aug-18 17:00N 51°35' E 002°06'5 9.6
2018-Aug-18 16:28N 51°39' E 002°12'4010.5
2018-Aug-18 12:37N 52°02' E 003°06'210.6
2018-Aug-18 12:28N 52°02' E 003°08'510.5
2018-Aug-18 11:58N 52°03' E 003°17'5 9.4
2018-Aug-18 11:30N 52°03' E 003°24'510.3
2018-Aug-18 11:00N 52°03' E 003°32'510.1
2018-Aug-18 10:30N 52°03' E 003°40'510.0
2018-Aug-18 10:00N 52°03' E 003°48'4 8.3
2018-Aug-18 09:30N 52°03' E 003°55'4 8.2
2018-Aug-18 09:01N 52°03' E 004°02'1 1.6
2018-Aug-18 08:30N 52°02' E 004°01'2 3.7
2018-Aug-18 08:00N 52°00' E 004°01'5 9.6
2018-Aug-18 07:30N 51°58' E 004°08'4 8.3
2018-Aug-18 07:00N 51°56' E 004°13'4 7.6
2018-Aug-18 06:30N 51°54' E 004°18'2 3.6
2018-Aug-18 05:58N 51°54' E 004°21'0 0.0
2018-Aug-18 05:25N 51°54' E 004°21'0 0.0
2018-Aug-18 04:52N 51°54' E 004°21'0 0.0
2018-Aug-18 04:13N 51°54' E 004°21'0 0.0
2018-Aug-18 03:49N 51°54' E 004°21'0 0.0
2018-Aug-18 02:25N 51°54' E 004°21'0 0.0
2018-Aug-18 01:58N 51°54' E 004°21'0 0.0
2018-Aug-18 01:22N 51°54' E 004°21'0 0.0
2018-Aug-18 00:58N 51°54' E 004°21'0 0.0
2018-Aug-18 00:28N 51°54' E 004°21'0 0.0
2018-Aug-17 23:46N 51°54' E 004°21'0 0.0
2018-Aug-17 23:22N 51°54' E 004°21'0 0.0
2018-Aug-17 22:55N 51°54' E 004°21'0 0.0
2018-Aug-17 22:25N 51°54' E 004°21'0 0.1
2018-Aug-17 21:58N 51°54' E 004°21'0 0.0
2018-Aug-17 21:22N 51°54' E 004°21'0 0.0
2018-Aug-17 20:58N 51°54' E 004°21'0 0.0
2018-Aug-17 20:28N 51°54' E 004°21'0 0.0
2018-Aug-17 19:34N 51°54' E 004°21'0 0.1
2018-Aug-17 19:28N 51°54' E 004°21'0 0.0
2018-Aug-17 18:46N 51°54' E 004°21'0 0.0
2018-Aug-17 18:28N 51°54' E 004°21'0 0.0
2018-Aug-17 17:58N 51°54' E 004°21'0 0.0
2018-Aug-17 16:49N 51°54' E 004°21'0 0.0
2018-Aug-17 16:25N 51°54' E 004°21'0 0.0
2018-Aug-17 15:58N 51°54' E 004°21'0 0.0
2018-Aug-17 15:22N 51°54' E 004°21'0 0.0
2018-Aug-17 14:49N 51°54' E 004°21'0 0.0
2018-Aug-17 14:19N 51°54' E 004°21'0 0.0
2018-Aug-17 13:10N 51°54' E 004°21'0 0.0
2018-Aug-17 12:55N 51°54' E 004°21'0 0.0
2018-Aug-17 12:25N 51°54' E 004°21'0 0.0
2018-Aug-17 11:52N 51°54' E 004°21'0 0.0
2018-Aug-17 11:28N 51°54' E 004°21'0 0.0
2018-Aug-17 10:58N 51°54' E 004°21'0 0.0
2018-Aug-17 10:28N 51°54' E 004°21'0 0.0
2018-Aug-17 09:58N 51°54' E 004°21'0 0.0
2018-Aug-17 09:28N 51°54' E 004°21'0 0.0
2018-Aug-17 08:46N 51°54' E 004°21'0 0.0
2018-Aug-17 08:28N 51°54' E 004°21'0 0.0
2018-Aug-17 07:58N 51°54' E 004°21'0 0.0
2018-Aug-17 07:28N 51°54' E 004°21'0 0.0
2018-Aug-17 06:58N 51°54' E 004°21'0 0.0
2018-Aug-17 06:28N 51°54' E 004°21'0 0.0
2018-Aug-17 05:40N 51°54' E 004°21'0 0.0
2018-Aug-17 05:16N 51°54' E 004°21'0 0.0
2018-Aug-17 04:49N 51°54' E 004°21'0 0.0
2018-Aug-17 04:25N 51°54' E 004°21'0 0.0
2018-Aug-17 03:58N 51°54' E 004°21'0 0.0
2018-Aug-17 03:19N 51°54' E 004°21'0 0.0
2018-Aug-17 02:55N 51°54' E 004°21'0 0.0
2018-Aug-17 02:25N 51°54' E 004°21'0 0.0
2018-Aug-17 01:55N 51°54' E 004°21'0 0.0
2018-Aug-17 01:19N 51°54' E 004°21'0 0.0
2018-Aug-17 00:58N 51°54' E 004°21'0 0.0
2018-Aug-17 00:28N 51°54' E 004°21'0 0.0
2018-Aug-16 23:58N 51°54' E 004°21'0 0.0
2018-Aug-16 23:28N 51°54' E 004°21'0 0.0
2018-Aug-16 22:58N 51°54' E 004°21'0 0.0
2018-Aug-16 22:25N 51°54' E 004°21'0 0.0
2018-Aug-16 21:52N 51°54' E 004°21'0 0.0
2018-Aug-16 21:28N 51°54' E 004°21'0 0.0
2018-Aug-16 20:58N 51°54' E 004°21'0 0.0
2018-Aug-16 20:28N 51°54' E 004°21'0 0.0
2018-Aug-16 19:52N 51°54' E 004°21'0 0.0
2018-Aug-16 19:16N 51°54' E 004°21'0 0.0
2018-Aug-16 18:49N 51°54' E 004°21'0 0.0
2018-Aug-16 18:28N 51°54' E 004°21'0 0.0
2018-Aug-16 17:58N 51°54' E 004°21'0 0.0
2018-Aug-16 17:13N 51°54' E 004°21'0 0.0
2018-Aug-16 16:58N 51°54' E 004°21'0 0.0
2018-Aug-16 16:25N 51°54' E 004°21'0 0.0
2018-Aug-16 15:34N 51°54' E 004°21'0 0.0
2018-Aug-16 15:25N 51°54' E 004°21'0 0.0
2018-Aug-16 14:37N 51°54' E 004°21'0 0.0
2018-Aug-16 13:43N 51°54' E 004°21'0 0.0
2018-Aug-16 13:25N 51°54' E 004°21'0 0.0
2018-Aug-16 12:07N 51°54' E 004°21'0 0.1
2018-Aug-16 11:55N 51°54' E 004°21'0 0.0
2018-Aug-16 11:16N 51°54' E 004°21'0 0.0
2018-Aug-16 10:55N 51°54' E 004°21'0 0.0
2018-Aug-16 10:22N 51°54' E 004°21'0 0.0
2018-Aug-16 09:52N 51°54' E 004°21'0 0.0
2018-Aug-16 09:16N 51°54' E 004°21'0 0.0
2018-Aug-16 08:58N 51°54' E 004°21'0 0.0
2018-Aug-16 08:28N 51°54' E 004°21'0 0.0
2018-Aug-16 07:52N 51°54' E 004°21'0 0.1
2018-Aug-16 07:31N 51°54' E 004°21'3 5.2
2018-Aug-16 07:00N 51°54' E 004°17'5 9.1
2018-Aug-16 06:30N 51°57' E 004°11'510.4
2018-Aug-16 06:01N 51°59' E 004°04'612.0
2018-Aug-16 05:30N 52°00' E 003°54'4 8.7
2018-Aug-16 05:00N 51°59' E 003°47'3 6.4
2018-Aug-16 04:29N 51°56' E 003°46'0 0.7
2018-Aug-16 03:54N 51°55' E 003°46'0 0.0
2018-Aug-16 03:24N 51°55' E 003°46'0 0.0
2018-Aug-16 02:48N 51°55' E 003°46'0 0.0
2018-Aug-16 01:45N 51°55' E 003°46'0 0.1
2018-Aug-16 01:27N 51°55' E 003°46'0 0.2
2018-Aug-16 00:57N 51°55' E 003°46'0 0.0
2018-Aug-16 00:24N 51°55' E 003°46'0 0.0
2018-Aug-15 23:45N 51°55' E 003°46'0 0.1
2018-Aug-15 23:30N 51°55' E 003°46'0 0.1
2018-Aug-15 22:54N 51°55' E 003°46'0 0.1
2018-Aug-15 22:21N 51°55' E 003°46'0 0.0
2018-Aug-15 21:30N 51°55' E 003°46'0 0.0
2018-Aug-15 20:57N 51°55' E 003°46'0 0.0
2018-Aug-15 20:09N 51°55' E 003°46'0 0.1
2018-Aug-15 19:54N 51°55' E 003°46'0 0.0
2018-Aug-15 19:27N 51°55' E 003°46'0 0.0
2018-Aug-15 18:48N 51°55' E 003°46'0 0.0
2018-Aug-15 18:30N 51°55' E 003°46'0 0.0
2018-Aug-15 17:48N 51°55' E 003°46'0 0.0
2018-Aug-15 17:30N 51°55' E 003°46'0 0.0
2018-Aug-15 16:51N 51°55' E 003°46'0 0.0
2018-Aug-15 16:30N 51°55' E 003°46'0 0.0
2018-Aug-15 16:00N 51°55' E 003°46'0 0.0
2018-Aug-15 15:30N 51°55' E 003°46'0 0.0
2018-Aug-15 15:00N 51°55' E 003°46'0 0.1
2018-Aug-15 14:26N 51°55' E 003°46'0 0.0
2018-Aug-15 14:00N 51°55' E 003°46'0 0.0
2018-Aug-15 13:24N 51°55' E 003°46'0 0.2
2018-Aug-15 12:57N 51°55' E 003°46'0 0.1
2018-Aug-15 12:24N 51°55' E 003°46'0 0.0
2018-Aug-15 12:00N 51°55' E 003°46'0 0.0
2018-Aug-15 11:30N 51°55' E 003°46'0 0.0
2018-Aug-15 10:51N 51°55' E 003°46'0 0.1
2018-Aug-15 10:27N 51°55' E 003°46'0 0.1
2018-Aug-15 10:00N 51°55' E 003°46'0 0.1
2018-Aug-15 09:27N 51°55' E 003°46'0 0.1
2018-Aug-15 09:00N 51°55' E 003°46'0 0.0
2018-Aug-15 08:08N 51°55' E 003°46'0 0.1
2018-Aug-15 07:54N 51°55' E 003°46'0 0.0
2018-Aug-15 07:20N 51°55' E 003°46'0 0.0
2018-Aug-15 06:51N 51°55' E 003°46'0 0.0
2018-Aug-15 06:15N 51°55' E 003°46'0 0.0
2018-Aug-15 05:57N 51°55' E 003°46'0 0.0
2018-Aug-15 05:30N 51°55' E 003°46'0 0.0
2018-Aug-15 04:42N 51°55' E 003°46'0 0.1
2018-Aug-15 04:30N 51°55' E 003°46'0 0.0
2018-Aug-15 03:59N 51°55' E 003°46'0 0.0
2018-Aug-15 02:30N 51°55' E 003°46'0 0.0
2018-Aug-15 01:26N 51°55' E 003°46'0 0.1
2018-Aug-15 00:56N 51°55' E 003°46'0 0.1
2018-Aug-14 23:53N 51°55' E 003°46'0 0.0
2018-Aug-14 23:27N 51°55' E 003°46'0 0.0
2018-Aug-14 23:00N 51°55' E 003°46'0 0.0
2018-Aug-14 22:26N 51°55' E 003°46'0 0.1
2018-Aug-14 21:45N 51°55' E 003°46'0 0.1
2018-Aug-14 21:24N 51°55' E 003°46'0 0.0
2018-Aug-14 20:20N 51°55' E 003°46'0 0.0
2018-Aug-14 20:00N 51°55' E 003°46'0 0.0
2018-Aug-14 19:23N 51°55' E 003°46'0 0.0
2018-Aug-14 17:42N 51°55' E 003°46'0 0.0
2018-Aug-14 17:20N 51°55' E 003°46'0 0.0
2018-Aug-14 16:26N 51°55' E 003°46'0 0.0
2018-Aug-14 15:53N 51°55' E 003°46'0 0.0
2018-Aug-14 15:03N 51°55' E 003°46'0 0.1
2018-Aug-14 14:41N 51°55' E 003°46'0 0.1
2018-Aug-14 14:26N 51°55' E 003°46'0 0.0
2018-Aug-14 13:56N 51°55' E 003°46'0 0.0
2018-Aug-14 13:26N 51°55' E 003°46'0 0.1
2018-Aug-14 12:47N 51°55' E 003°46'0 0.0
2018-Aug-14 12:29N 51°55' E 003°46'0 0.1
2018-Aug-14 11:56N 51°55' E 003°46'0 0.0
2018-Aug-14 10:50N 51°55' E 003°46'0 0.0
2018-Aug-14 10:26N 51°55' E 003°46'0 0.0
2018-Aug-14 09:59N 51°55' E 003°46'0 0.0
2018-Aug-14 09:23N 51°55' E 003°46'0 0.0
2018-Aug-14 08:56N 51°55' E 003°46'0 0.0
2018-Aug-14 08:14N 51°55' E 003°46'0 0.1
2018-Aug-14 07:47N 51°55' E 003°46'0 0.0
2018-Aug-14 07:23N 51°55' E 003°46'0 0.0
2018-Aug-14 06:26N 51°55' E 003°46'0 0.0
2018-Aug-14 05:59N 51°55' E 003°46'0 0.0
2018-Aug-14 05:29N 51°55' E 003°46'0 0.0
2018-Aug-14 04:59N 51°55' E 003°46'0 0.0
2018-Aug-14 04:20N 51°55' E 003°46'0 0.0
2018-Aug-14 02:53N 51°55' E 003°46'0 0.0
2018-Aug-14 02:29N 51°55' E 003°46'0 0.0
2018-Aug-14 01:59N 51°55' E 003°46'0 0.0
2018-Aug-14 01:05N 51°55' E 003°46'0 0.2
2018-Aug-14 00:59N 51°55' E 003°46'0 0.1
2018-Aug-14 00:05N 51°55' E 003°46'0 0.0
2018-Aug-13 23:56N 51°55' E 003°46'0 0.0
2018-Aug-13 23:23N 51°55' E 003°46'0 0.0
2018-Aug-13 22:59N 51°55' E 003°46'0 0.0
2018-Aug-13 22:23N 51°55' E 003°46'0 0.0
2018-Aug-13 21:56N 51°55' E 003°46'0 0.0
2018-Aug-13 21:23N 51°55' E 003°46'0 0.1
2018-Aug-13 20:53N 51°55' E 003°46'0 0.1
2018-Aug-13 20:29N 51°55' E 003°46'0 0.1
2018-Aug-13 19:59N 51°55' E 003°46'0 0.0
2018-Aug-13 19:26N 51°55' E 003°46'0 0.0
2018-Aug-13 18:53N 51°55' E 003°46'0 0.0
2018-Aug-13 18:14N 51°55' E 003°46'0 0.0
2018-Aug-13 17:44N 51°55' E 003°46'0 0.0
2018-Aug-13 17:26N 51°55' E 003°46'0 0.0
2018-Aug-13 16:53N 51°55' E 003°46'0 0.0
2018-Aug-13 16:14N 51°55' E 003°46'0 0.0
2018-Aug-13 15:38N 51°55' E 003°46'0 0.0
2018-Aug-13 15:23N 51°55' E 003°46'0 0.0
2018-Aug-13 14:56N 51°55' E 003°46'0 0.0
2018-Aug-13 14:29N 51°55' E 003°46'0 0.0
2018-Aug-13 13:50N 51°55' E 003°46'0 0.1
2018-Aug-13 13:11N 51°55' E 003°46'0 0.0
2018-Aug-13 12:59N 51°55' E 003°46'0 0.1
2018-Aug-13 12:17N 51°55' E 003°46'0 0.0
2018-Aug-13 11:50N 51°55' E 003°46'0 0.0
2018-Aug-13 11:23N 51°55' E 003°46'0 0.0
2018-Aug-13 10:59N 51°55' E 003°46'0 0.0
2018-Aug-13 09:59N 51°55' E 003°46'0 0.0
2018-Aug-13 09:26N 51°55' E 003°46'0 0.1
2018-Aug-13 08:53N 51°55' E 003°46'0 0.1
2018-Aug-13 08:23N 51°55' E 003°46'0 0.0
2018-Aug-13 06:05N 51°55' E 003°46'0 0.2
2018-Aug-13 05:57N 51°55' E 003°46'0 0.1
2018-Aug-13 05:27N 51°55' E 003°46'0 0.0
2018-Aug-13 04:54N 51°55' E 003°46'0 0.0
2018-Aug-13 04:09N 51°55' E 003°46'0 0.0
2018-Aug-13 04:00N 51°55' E 003°46'0 0.0
2018-Aug-13 03:30N 51°55' E 003°46'0 0.0
2018-Aug-13 03:00N 51°55' E 003°46'0 0.0
2018-Aug-13 02:30N 51°55' E 003°46'0 0.0
2018-Aug-13 01:57N 51°55' E 003°46'0 0.0
2018-Aug-13 01:24N 51°55' E 003°46'0 0.1
2018-Aug-13 00:54N 51°55' E 003°46'0 0.2
2018-Aug-13 00:30N 51°55' E 003°46'0 0.1
2018-Aug-13 00:00N 51°55' E 003°46'0 0.0
2018-Aug-12 23:27N 51°55' E 003°46'0 0.0
2018-Aug-12 23:00N 51°55' E 003°46'0 0.0
2018-Aug-12 22:30N 51°55' E 003°46'0 0.0
2018-Aug-12 22:00N 51°55' E 003°46'0 0.0
2018-Aug-12 21:27N 51°55' E 003°46'0 0.0
2018-Aug-12 21:00N 51°55' E 003°46'0 0.0
2018-Aug-12 20:27N 51°55' E 003°46'0 0.0
2018-Aug-12 19:54N 51°55' E 003°46'0 0.1
2018-Aug-12 19:30N 51°55' E 003°46'0 0.8
2018-Aug-12 19:00N 51°56' E 003°45'4 8.2
2018-Aug-12 18:30N 51°57' E 003°39'510.6
2018-Aug-12 18:00N 51°56' E 003°31'610.7
2018-Aug-12 17:29N 51°55' E 003°22'510.7
2018-Aug-12 16:58N 51°53' E 003°13'2410.8
2018-Aug-12 14:47N 51°45' E 002°38'413.6
2018-Aug-12 14:27N 51°42' E 002°33'613.8
2018-Aug-12 14:00N 51°37' E 002°26'714.3
2018-Aug-12 13:30N 51°31' E 002°19'713.8
2018-Aug-12 13:00N 51°25' E 002°13'713.8
2018-Aug-12 12:30N 51°19' E 002°08'713.9
2018-Aug-12 12:01N 51°14' E 002°02'714.2
2018-Aug-12 11:30N 51°10' E 001°52'713.7
2018-Aug-12 11:00N 51°06' E 001°43'612.9
2018-Aug-12 10:30N 51°02' E 001°35'612.2
2018-Aug-12 10:01N 50°57' E 001°29'510.7
2018-Aug-12 09:31N 50°53' E 001°24'610.7
2018-Aug-12 08:55N 50°47' E 001°21'510.1
2018-Aug-12 08:27N 50°43' E 001°18'1411.3
2018-Aug-12 07:14N 50°34' E 001°02'411.1
2018-Aug-12 06:55N 50°32' E 000°57'411.0
2018-Aug-12 06:31N 50°30' E 000°50'510.3
2018-Aug-12 06:00N 50°29' E 000°42'23 9.6
2018-Aug-12 03:36N 50°23' E 000°08'15 9.4
2018-Aug-12 01:59N 50°19' W 000°15'10 9.1
2018-Aug-12 00:56N 50°16' W 000°30'4 9.3
2018-Aug-12 00:29N 50°15' W 000°36'8913.5
2018-Aug-11 17:54N 49°51' W 002°50'1213.6
2018-Aug-11 17:01N 49°50' W 003°09'012.5
2018-Aug-11 17:00N 49°50' W 003°09'2312.8
2018-Aug-11 15:12N 49°49' W 003°45'  
Track history (hours):
 
Tides and Currents Weather Stations Pressure Air Temp Water Temp Dewpoint Dewpoint Depression Visibility Wind Speed Wind Dir Waves Ship Positions

Oralynn

Last reported at 2018-Aug-21 02:23 UTC. Time now 2018-Aug-21 03:55 UTC.
Position N 45°59' W 002°22'.

Length 103 m; draft 7.1 m.

Type: Ship (hazmat cat B). MMSI: 236647000.

Date/timePositionNaut miles runAvg speedWind from/ knotsBaromVisibWave heightAir tempDewpointWater temp
2018-Aug-21 02:23N 45°59' W 002°22'9910.9
2018-Aug-20 17:18N 47°07' W 004°07'610.9
2018-Aug-20 16:47N 47°11' W 004°13'410.7
2018-Aug-20 16:24N 47°13' W 004°17'610.8
2018-Aug-20 15:48N 47°18' W 004°24'511.0
2018-Aug-20 15:19N 47°22' W 004°30'153 7.0
2018-Aug-19 17:33N 49°48' W 003°21'110.1
2018-Aug-19 17:30N 49°48' W 003°21'510.2
2018-Aug-19 17:00N 49°51' W 003°14'10 9.9
2018-Aug-19 16:01N 49°55' W 003°01'0 9.7
2018-Aug-19 15:58N 49°56' W 002°60'91 9.8
2018-Aug-19 06:39N 50°23' W 000°44'511.0
2018-Aug-19 06:13N 50°25' W 000°37'2710.3
2018-Aug-19 03:35N 50°33' E 000°04'9 9.2
2018-Aug-19 02:39N 50°35' E 000°17'1 8.8
2018-Aug-19 02:29N 50°36' E 000°19'4 8.6
2018-Aug-19 01:58N 50°37' E 000°26'4 9.0
2018-Aug-19 01:30N 50°38' E 000°32'5 9.3
2018-Aug-19 01:00N 50°40' E 000°38'5 9.9
2018-Aug-19 00:30N 50°43' E 000°44'510.4
2018-Aug-19 00:00N 50°46' E 000°51'611.0
2018-Aug-18 23:30N 50°50' E 000°58'611.2
2018-Aug-18 22:59N 50°53' E 001°06'511.3
2018-Aug-18 22:30N 50°57' E 001°12'611.3
2018-Aug-18 22:00N 51°00' E 001°19'611.0
2018-Aug-18 21:30N 51°04' E 001°26'510.4
2018-Aug-18 21:00N 51°07' E 001°32'5 9.7
2018-Aug-18 20:30N 51°10' E 001°38'5 9.3
2018-Aug-18 20:00N 51°13' E 001°44'4 8.9
2018-Aug-18 19:30N 51°17' E 001°47'4 8.8
2018-Aug-18 19:00N 51°21' E 001°50'4 8.7
2018-Aug-18 18:30N 51°25' E 001°52'4 8.5
2018-Aug-18 18:00N 51°29' E 001°56'4 8.8
2018-Aug-18 17:30N 51°32' E 002°01'5 9.3
2018-Aug-18 17:00N 51°35' E 002°06'5 9.6
2018-Aug-18 16:28N 51°39' E 002°12'4010.5
2018-Aug-18 12:37N 52°02' E 003°06'210.6
2018-Aug-18 12:28N 52°02' E 003°08'510.5
2018-Aug-18 11:58N 52°03' E 003°17'5 9.4
2018-Aug-18 11:30N 52°03' E 003°24'510.3
2018-Aug-18 11:00N 52°03' E 003°32'510.1
2018-Aug-18 10:30N 52°03' E 003°40'510.0
2018-Aug-18 10:00N 52°03' E 003°48'4 8.3
2018-Aug-18 09:30N 52°03' E 003°55'4 8.2
2018-Aug-18 09:01N 52°03' E 004°02'1 1.6
2018-Aug-18 08:30N 52°02' E 004°01'2 3.7
2018-Aug-18 08:00N 52°00' E 004°01'5 9.6
2018-Aug-18 07:30N 51°58' E 004°08'4 8.3
2018-Aug-18 07:00N 51°56' E 004°13'4 7.6
2018-Aug-18 06:30N 51°54' E 004°18'2 3.6
2018-Aug-18 05:58N 51°54' E 004°21'0 0.0
2018-Aug-18 05:25N 51°54' E 004°21'0 0.0
2018-Aug-18 04:52N 51°54' E 004°21'0 0.0
2018-Aug-18 04:13N 51°54' E 004°21'0 0.0
2018-Aug-18 03:49N 51°54' E 004°21'0 0.0
2018-Aug-18 02:25N 51°54' E 004°21'0 0.0
2018-Aug-18 01:58N 51°54' E 004°21'0 0.0
2018-Aug-18 01:22N 51°54' E 004°21'0 0.0
2018-Aug-18 00:58N 51°54' E 004°21'0 0.0
2018-Aug-18 00:28N 51°54' E 004°21'0 0.0
2018-Aug-17 23:46N 51°54' E 004°21'0 0.0
2018-Aug-17 23:22N 51°54' E 004°21'0 0.0
2018-Aug-17 22:55N 51°54' E 004°21'0 0.0
2018-Aug-17 22:25N 51°54' E 004°21'0 0.1
2018-Aug-17 21:58N 51°54' E 004°21'0 0.0
2018-Aug-17 21:22N 51°54' E 004°21'0 0.0
2018-Aug-17 20:58N 51°54' E 004°21'0 0.0
2018-Aug-17 20:28N 51°54' E 004°21'0 0.0
2018-Aug-17 19:34N 51°54' E 004°21'0 0.1
2018-Aug-17 19:28N 51°54' E 004°21'0 0.0
2018-Aug-17 18:46N 51°54' E 004°21'0 0.0
2018-Aug-17 18:28N 51°54' E 004°21'0 0.0
2018-Aug-17 17:58N 51°54' E 004°21'0 0.0
2018-Aug-17 16:49N 51°54' E 004°21'0 0.0
2018-Aug-17 16:25N 51°54' E 004°21'0 0.0
2018-Aug-17 15:58N 51°54' E 004°21'0 0.0
2018-Aug-17 15:22N 51°54' E 004°21'0 0.0
2018-Aug-17 14:49N 51°54' E 004°21'0 0.0
2018-Aug-17 14:19N 51°54' E 004°21'0 0.0
2018-Aug-17 13:10N 51°54' E 004°21'0 0.0
2018-Aug-17 12:55N 51°54' E 004°21'0 0.0
2018-Aug-17 12:25N 51°54' E 004°21'0 0.0
2018-Aug-17 11:52N 51°54' E 004°21'0 0.0
2018-Aug-17 11:28N 51°54' E 004°21'0 0.0
2018-Aug-17 10:58N 51°54' E 004°21'0 0.0
2018-Aug-17 10:28N 51°54' E 004°21'0 0.0
2018-Aug-17 09:58N 51°54' E 004°21'0 0.0
2018-Aug-17 09:28N 51°54' E 004°21'0 0.0
2018-Aug-17 08:46N 51°54' E 004°21'0 0.0
2018-Aug-17 08:28N 51°54' E 004°21'0 0.0
2018-Aug-17 07:58N 51°54' E 004°21'0 0.0
2018-Aug-17 07:28N 51°54' E 004°21'0 0.0
2018-Aug-17 06:58N 51°54' E 004°21'0 0.0
2018-Aug-17 06:28N 51°54' E 004°21'0 0.0
2018-Aug-17 05:40N 51°54' E 004°21'0 0.0
2018-Aug-17 05:16N 51°54' E 004°21'0 0.0
2018-Aug-17 04:49N 51°54' E 004°21'0 0.0
2018-Aug-17 04:25N 51°54' E 004°21'0 0.0
2018-Aug-17 03:58N 51°54' E 004°21'0 0.0
2018-Aug-17 03:19N 51°54' E 004°21'0 0.0
2018-Aug-17 02:55N 51°54' E 004°21'0 0.0
2018-Aug-17 02:25N 51°54' E 004°21'0 0.0
2018-Aug-17 01:55N 51°54' E 004°21'0 0.0
2018-Aug-17 01:19N 51°54' E 004°21'0 0.0
2018-Aug-17 00:58N 51°54' E 004°21'0 0.0
2018-Aug-17 00:28N 51°54' E 004°21'0 0.0
2018-Aug-16 23:58N 51°54' E 004°21'0 0.0
2018-Aug-16 23:28N 51°54' E 004°21'0 0.0
2018-Aug-16 22:58N 51°54' E 004°21'0 0.0
2018-Aug-16 22:25N 51°54' E 004°21'0 0.0
2018-Aug-16 21:52N 51°54' E 004°21'0 0.0
2018-Aug-16 21:28N 51°54' E 004°21'0 0.0
2018-Aug-16 20:58N 51°54' E 004°21'0 0.0
2018-Aug-16 20:28N 51°54' E 004°21'0 0.0
2018-Aug-16 19:52N 51°54' E 004°21'0 0.0
2018-Aug-16 19:16N 51°54' E 004°21'0 0.0
2018-Aug-16 18:49N 51°54' E 004°21'0 0.0
2018-Aug-16 18:28N 51°54' E 004°21'0 0.0
2018-Aug-16 17:58N 51°54' E 004°21'0 0.0
2018-Aug-16 17:13N 51°54' E 004°21'0 0.0
2018-Aug-16 16:58N 51°54' E 004°21'0 0.0
2018-Aug-16 16:25N 51°54' E 004°21'0 0.0
2018-Aug-16 15:34N 51°54' E 004°21'0 0.0
2018-Aug-16 15:25N 51°54' E 004°21'0 0.0
2018-Aug-16 14:37N 51°54' E 004°21'0 0.0
2018-Aug-16 13:43N 51°54' E 004°21'0 0.0
2018-Aug-16 13:25N 51°54' E 004°21'0 0.0
2018-Aug-16 12:07N 51°54' E 004°21'0 0.1
2018-Aug-16 11:55N 51°54' E 004°21'0 0.0
2018-Aug-16 11:16N 51°54' E 004°21'0 0.0
2018-Aug-16 10:55N 51°54' E 004°21'0 0.0
2018-Aug-16 10:22N 51°54' E 004°21'0 0.0
2018-Aug-16 09:52N 51°54' E 004°21'0 0.0
2018-Aug-16 09:16N 51°54' E 004°21'0 0.0
2018-Aug-16 08:58N 51°54' E 004°21'0 0.0
2018-Aug-16 08:28N 51°54' E 004°21'0 0.0
2018-Aug-16 07:52N 51°54' E 004°21'0 0.1
2018-Aug-16 07:31N 51°54' E 004°21'3 5.2
2018-Aug-16 07:00N 51°54' E 004°17'5 9.1
2018-Aug-16 06:30N 51°57' E 004°11'510.4
2018-Aug-16 06:01N 51°59' E 004°04'612.0
2018-Aug-16 05:30N 52°00' E 003°54'4 8.7
2018-Aug-16 05:00N 51°59' E 003°47'3 6.4
2018-Aug-16 04:29N 51°56' E 003°46'0 0.7
2018-Aug-16 03:54N 51°55' E 003°46'0 0.0
2018-Aug-16 03:24N 51°55' E 003°46'0 0.0
2018-Aug-16 02:48N 51°55' E 003°46'0 0.0
2018-Aug-16 01:45N 51°55' E 003°46'0 0.1
2018-Aug-16 01:27N 51°55' E 003°46'0 0.2
2018-Aug-16 00:57N 51°55' E 003°46'0 0.0
2018-Aug-16 00:24N 51°55' E 003°46'0 0.0
2018-Aug-15 23:45N 51°55' E 003°46'0 0.1
2018-Aug-15 23:30N 51°55' E 003°46'0 0.1
2018-Aug-15 22:54N 51°55' E 003°46'0 0.1
2018-Aug-15 22:21N 51°55' E 003°46'0 0.0
2018-Aug-15 21:30N 51°55' E 003°46'0 0.0
2018-Aug-15 20:57N 51°55' E 003°46'0 0.0
2018-Aug-15 20:09N 51°55' E 003°46'0 0.1
2018-Aug-15 19:54N 51°55' E 003°46'0 0.0
2018-Aug-15 19:27N 51°55' E 003°46'0 0.0
2018-Aug-15 18:48N 51°55' E 003°46'0 0.0
2018-Aug-15 18:30N 51°55' E 003°46'0 0.0
2018-Aug-15 17:48N 51°55' E 003°46'0 0.0
2018-Aug-15 17:30N 51°55' E 003°46'0 0.0
2018-Aug-15 16:51N 51°55' E 003°46'0 0.0
2018-Aug-15 16:30N 51°55' E 003°46'0 0.0
2018-Aug-15 16:00N 51°55' E 003°46'0 0.0
2018-Aug-15 15:30N 51°55' E 003°46'0 0.0
2018-Aug-15 15:00N 51°55' E 003°46'0 0.1
2018-Aug-15 14:26N 51°55' E 003°46'0 0.0
2018-Aug-15 14:00N 51°55' E 003°46'0 0.0
2018-Aug-15 13:24N 51°55' E 003°46'0 0.2
2018-Aug-15 12:57N 51°55' E 003°46'0 0.1
2018-Aug-15 12:24N 51°55' E 003°46'0 0.0
2018-Aug-15 12:00N 51°55' E 003°46'0 0.0
2018-Aug-15 11:30N 51°55' E 003°46'0 0.0
2018-Aug-15 10:51N 51°55' E 003°46'0 0.1
2018-Aug-15 10:27N 51°55' E 003°46'0 0.1
2018-Aug-15 10:00N 51°55' E 003°46'0 0.1
2018-Aug-15 09:27N 51°55' E 003°46'0 0.1
2018-Aug-15 09:00N 51°55' E 003°46'0 0.0
2018-Aug-15 08:08N 51°55' E 003°46'0 0.1
2018-Aug-15 07:54N 51°55' E 003°46'0 0.0
2018-Aug-15 07:20N 51°55' E 003°46'0 0.0
2018-Aug-15 06:51N 51°55' E 003°46'0 0.0
2018-Aug-15 06:15N 51°55' E 003°46'0 0.0
2018-Aug-15 05:57N 51°55' E 003°46'0 0.0
2018-Aug-15 05:30N 51°55' E 003°46'0 0.0
2018-Aug-15 04:42N 51°55' E 003°46'0 0.1
2018-Aug-15 04:30N 51°55' E 003°46'0 0.0
2018-Aug-15 03:59N 51°55' E 003°46'0 0.0
2018-Aug-15 02:30N 51°55' E 003°46'0 0.0
2018-Aug-15 01:26N 51°55' E 003°46'0 0.1
2018-Aug-15 00:56N 51°55' E 003°46'0 0.1
2018-Aug-14 23:53N 51°55' E 003°46'0 0.0
2018-Aug-14 23:27N 51°55' E 003°46'0 0.0
2018-Aug-14 23:00N 51°55' E 003°46'0 0.0
2018-Aug-14 22:26N 51°55' E 003°46'0 0.1
2018-Aug-14 21:45N 51°55' E 003°46'0 0.1
2018-Aug-14 21:24N 51°55' E 003°46'0 0.0
2018-Aug-14 20:20N 51°55' E 003°46'0 0.0
2018-Aug-14 20:00N 51°55' E 003°46'0 0.0
2018-Aug-14 19:23N 51°55' E 003°46'0 0.0
2018-Aug-14 17:42N 51°55' E 003°46'0 0.0
2018-Aug-14 17:20N 51°55' E 003°46'0 0.0
2018-Aug-14 16:26N 51°55' E 003°46'0 0.0
2018-Aug-14 15:53N 51°55' E 003°46'0 0.0
2018-Aug-14 15:03N 51°55' E 003°46'0 0.1
2018-Aug-14 14:41N 51°55' E 003°46'0 0.1
2018-Aug-14 14:26N 51°55' E 003°46'0 0.0
2018-Aug-14 13:56N 51°55' E 003°46'0 0.0
2018-Aug-14 13:26N 51°55' E 003°46'0 0.1
2018-Aug-14 12:47N 51°55' E 003°46'0 0.0
2018-Aug-14 12:29N 51°55' E 003°46'0 0.1
2018-Aug-14 11:56N 51°55' E 003°46'0 0.0
2018-Aug-14 10:50N 51°55' E 003°46'0 0.0
2018-Aug-14 10:26N 51°55' E 003°46'0 0.0
2018-Aug-14 09:59N 51°55' E 003°46'0 0.0
2018-Aug-14 09:23N 51°55' E 003°46'0 0.0
2018-Aug-14 08:56N 51°55' E 003°46'0 0.0
2018-Aug-14 08:14N 51°55' E 003°46'0 0.1
2018-Aug-14 07:47N 51°55' E 003°46'0 0.0
2018-Aug-14 07:23N 51°55' E 003°46'0 0.0
2018-Aug-14 06:26N 51°55' E 003°46'0 0.0
2018-Aug-14 05:59N 51°55' E 003°46'0 0.0
2018-Aug-14 05:29N 51°55' E 003°46'0 0.0
2018-Aug-14 04:59N 51°55' E 003°46'0 0.0
2018-Aug-14 04:20N 51°55' E 003°46'0 0.0
2018-Aug-14 02:53N 51°55' E 003°46'0 0.0
2018-Aug-14 02:29N 51°55' E 003°46'0 0.0
2018-Aug-14 01:59N 51°55' E 003°46'0 0.0
2018-Aug-14 01:05N 51°55' E 003°46'0 0.2
2018-Aug-14 00:59N 51°55' E 003°46'0 0.1
2018-Aug-14 00:05N 51°55' E 003°46'0 0.0
2018-Aug-13 23:56N 51°55' E 003°46'0 0.0
2018-Aug-13 23:23N 51°55' E 003°46'0 0.0
2018-Aug-13 22:59N 51°55' E 003°46'0 0.0
2018-Aug-13 22:23N 51°55' E 003°46'0 0.0
2018-Aug-13 21:56N 51°55' E 003°46'0 0.0
2018-Aug-13 21:23N 51°55' E 003°46'0 0.1
2018-Aug-13 20:53N 51°55' E 003°46'0 0.1
2018-Aug-13 20:29N 51°55' E 003°46'0 0.1
2018-Aug-13 19:59N 51°55' E 003°46'0 0.0
2018-Aug-13 19:26N 51°55' E 003°46'0 0.0
2018-Aug-13 18:53N 51°55' E 003°46'0 0.0
2018-Aug-13 18:14N 51°55' E 003°46'0 0.0
2018-Aug-13 17:44N 51°55' E 003°46'0 0.0
2018-Aug-13 17:26N 51°55' E 003°46'0 0.0
2018-Aug-13 16:53N 51°55' E 003°46'0 0.0
2018-Aug-13 16:14N 51°55' E 003°46'0 0.0
2018-Aug-13 15:38N 51°55' E 003°46'0 0.0
2018-Aug-13 15:23N 51°55' E 003°46'0 0.0
2018-Aug-13 14:56N 51°55' E 003°46'0 0.0
2018-Aug-13 14:29N 51°55' E 003°46'0 0.0
2018-Aug-13 13:50N 51°55' E 003°46'0 0.1
2018-Aug-13 13:11N 51°55' E 003°46'0 0.0
2018-Aug-13 12:59N 51°55' E 003°46'0 0.1
2018-Aug-13 12:17N 51°55' E 003°46'0 0.0
2018-Aug-13 11:50N 51°55' E 003°46'0 0.0
2018-Aug-13 11:23N 51°55' E 003°46'0 0.0
2018-Aug-13 10:59N 51°55' E 003°46'0 0.0
2018-Aug-13 09:59N 51°55' E 003°46'0 0.0
2018-Aug-13 09:26N 51°55' E 003°46'0 0.1
2018-Aug-13 08:53N 51°55' E 003°46'0 0.1
2018-Aug-13 08:23N 51°55' E 003°46'0 0.0
2018-Aug-13 06:05N 51°55' E 003°46'0 0.2
2018-Aug-13 05:57N 51°55' E 003°46'0 0.1
2018-Aug-13 05:27N 51°55' E 003°46'0 0.0
2018-Aug-13 04:54N 51°55' E 003°46'0 0.0
2018-Aug-13 04:09N 51°55' E 003°46'0 0.0
2018-Aug-13 04:00N 51°55' E 003°46'0 0.0
2018-Aug-13 03:30N 51°55' E 003°46'0 0.0
2018-Aug-13 03:00N 51°55' E 003°46'0 0.0
2018-Aug-13 02:30N 51°55' E 003°46'0 0.0
2018-Aug-13 01:57N 51°55' E 003°46'0 0.0
2018-Aug-13 01:24N 51°55' E 003°46'0 0.1
2018-Aug-13 00:54N 51°55' E 003°46'0 0.2
2018-Aug-13 00:30N 51°55' E 003°46'0 0.1
2018-Aug-13 00:00N 51°55' E 003°46'0 0.0
2018-Aug-12 23:27N 51°55' E 003°46'0 0.0
2018-Aug-12 23:00N 51°55' E 003°46'0 0.0
2018-Aug-12 22:30N 51°55' E 003°46'0 0.0
2018-Aug-12 22:00N 51°55' E 003°46'0 0.0
2018-Aug-12 21:27N 51°55' E 003°46'0 0.0
2018-Aug-12 21:00N 51°55' E 003°46'0 0.0
2018-Aug-12 20:27N 51°55' E 003°46'0 0.0
2018-Aug-12 19:54N 51°55' E 003°46'0 0.1
2018-Aug-12 19:30N 51°55' E 003°46'0 0.8
2018-Aug-12 19:00N 51°56' E 003°45'4 8.2
2018-Aug-12 18:30N 51°57' E 003°39'510.6
2018-Aug-12 18:00N 51°56' E 003°31'610.7
2018-Aug-12 17:29N 51°55' E 003°22'510.7
2018-Aug-12 16:58N 51°53' E 003°13'2410.8
2018-Aug-12 14:47N 51°45' E 002°38'413.6
2018-Aug-12 14:27N 51°42' E 002°33'613.8
2018-Aug-12 14:00N 51°37' E 002°26'714.3
2018-Aug-12 13:30N 51°31' E 002°19'713.8
2018-Aug-12 13:00N 51°25' E 002°13'713.8
2018-Aug-12 12:30N 51°19' E 002°08'713.9
2018-Aug-12 12:01N 51°14' E 002°02'714.2
2018-Aug-12 11:30N 51°10' E 001°52'713.7
2018-Aug-12 11:00N 51°06' E 001°43'612.9
2018-Aug-12 10:30N 51°02' E 001°35'612.2
2018-Aug-12 10:01N 50°57' E 001°29'510.7
2018-Aug-12 09:31N 50°53' E 001°24'610.7
2018-Aug-12 08:55N 50°47' E 001°21'510.1
2018-Aug-12 08:27N 50°43' E 001°18'1411.3
2018-Aug-12 07:14N 50°34' E 001°02'411.1
2018-Aug-12 06:55N 50°32' E 000°57'411.0
2018-Aug-12 06:31N 50°30' E 000°50'510.3
2018-Aug-12 06:00N 50°29' E 000°42'23 9.6
2018-Aug-12 03:36N 50°23' E 000°08'15 9.4
2018-Aug-12 01:59N 50°19' W 000°15'10 9.1
2018-Aug-12 00:56N 50°16' W 000°30'4 9.3
2018-Aug-12 00:29N 50°15' W 000°36'8913.5
2018-Aug-11 17:54N 49°51' W 002°50'1213.6
2018-Aug-11 17:01N 49°50' W 003°09'012.5
2018-Aug-11 17:00N 49°50' W 003°09'2312.8
2018-Aug-11 15:12N 49°49' W 003°45'  

Dump ship's entire track history